Terminal Aerodrome Forecast
Issued by NWS

Home | Current Version | Previous Version | Text Only | Print | Product List | Glossary On
Versions: 1 2 3 4 5 6 7 8 9 10 11 12 13 14 15 16 17 18 19 20 21 22 23 24 25
661
FTUS45 KGJT 141734
TAFEGE
TAF
KEGE 141734Z 1418/1518 VRB03KT P6SM SCT080 OVC150 WS020/28030KT
     FM142200 25015G30KT P6SM VCSH OVC070
     FM142300 24010G25KT 3SM -SN BR SCT020 OVC030
     FM150300 VRB03KT 5SM BR VCSH SCT030 OVC050
     FM151500 VRB03KT P6SM SCT050 OVC070=

USA.gov is the U.S. government's official web portal to all federal, state and local government web resources and services.